createdAt,value
2023-04-27T00:00:33.622Z,1.70
2023-04-27T00:03:05.802Z,1.23
2023-04-27T00:05:39.514Z,1.10
2023-04-27T00:08:07.139Z,1.10
2023-04-27T00:11:11.489Z,1.40
2023-04-27T00:13:38.322Z,0.97
2023-04-27T00:16:05.419Z,1.60
2023-04-27T00:18:32.982Z,1.67
2023-04-27T00:21:00.101Z,1.47
2023-04-27T00:23:27.214Z,1.73
2023-04-27T00:25:54.053Z,1.27
2023-04-27T00:28:20.861Z,1.37
2023-04-27T00:30:48.840Z,1.53
2023-04-27T00:33:17.033Z,1.20
2023-04-27T00:35:43.804Z,1.33
2023-04-27T00:38:11.084Z,1.30
2023-04-27T00:40:57.211Z,1.53
2023-04-27T00:43:24.032Z,1.67
2023-04-27T00:45:50.925Z,1.13
2023-04-27T00:48:17.815Z,1.20
2023-04-27T00:50:44.703Z,1.10
2023-04-27T00:53:12.786Z,1.53
2023-04-27T00:55:39.578Z,1.60
2023-04-27T00:58:06.664Z,1.50
2023-04-27T01:00:36.162Z,1.73
2023-04-27T01:03:04.750Z,1.10
2023-04-27T01:05:32.668Z,1.50
2023-04-27T01:07:59.677Z,1.33
2023-04-27T01:10:27.540Z,1.97
2023-04-27T01:12:54.479Z,1.37
2023-04-27T01:15:21.449Z,1.20
2023-04-27T01:20:33.106Z,1.40
2023-04-27T01:23:00.412Z,1.47
2023-04-27T01:25:27.178Z,1.33
2023-04-27T01:27:54.529Z,1.33
2023-04-27T01:30:22.713Z,1.40
2023-04-27T01:32:50.217Z,1.47
2023-04-27T01:35:19.298Z,1.30
2023-04-27T01:37:46.142Z,1.30
2023-04-27T01:40:13.676Z,1.13
2023-04-27T01:42:40.875Z,1.53
2023-04-27T01:45:09.706Z,1.67
2023-04-27T01:47:37.746Z,1.30
2023-04-27T01:50:05.052Z,1.37
2023-04-27T01:52:31.953Z,1.67
2023-04-27T01:55:17.354Z,1.30
2023-04-27T01:57:44.141Z,1.00
2023-04-27T02:00:12.339Z,1.23
2023-04-27T02:02:48.056Z,1.40
2023-04-27T02:05:14.968Z,1.50
2023-04-27T02:07:41.752Z,1.70
2023-04-27T02:10:08.931Z,1.50
2023-04-27T02:12:35.764Z,1.50
2023-04-27T02:15:03.770Z,1.10
2023-04-27T02:17:31.379Z,1.37
2023-04-27T02:19:58.246Z,1.30
2023-04-27T02:22:25.054Z,1.53
2023-04-27T02:24:51.785Z,1.20
2023-04-27T02:27:18.788Z,1.50
2023-04-27T02:29:46.200Z,1.20
2023-04-27T02:32:13.386Z,2.23
2023-04-27T02:34:40.155Z,1.23
2023-04-27T02:37:07.000Z,1.50
2023-04-27T02:39:33.772Z,1.30
2023-04-27T02:42:01.534Z,1.40
2023-04-27T02:44:28.312Z,1.30
2023-04-27T02:46:55.141Z,1.00
2023-04-27T02:49:22.218Z,1.20
2023-04-27T02:51:50.043Z,1.30
2023-04-27T02:54:35.311Z,1.40
2023-04-27T02:57:02.329Z,1.30
2023-04-27T02:59:29.194Z,1.33
2023-04-27T03:01:56.187Z,1.10
2023-04-27T03:04:23.661Z,1.43
2023-04-27T03:06:51.011Z,1.20
2023-04-27T03:09:17.833Z,1.33
2023-04-27T03:11:44.586Z,1.63
2023-04-27T03:14:12.810Z,1.43
2023-04-27T03:16:39.755Z,1.70
2023-04-27T03:19:07.267Z,1.30
2023-04-27T03:21:34.049Z,1.50
2023-04-27T03:24:01.057Z,1.90
2023-04-27T03:26:27.837Z,1.33
2023-04-27T03:28:54.626Z,1.67
2023-04-27T03:31:21.748Z,1.90
2023-04-27T03:33:48.627Z,1.57
2023-04-27T03:36:15.501Z,1.70
2023-04-27T03:38:42.336Z,1.40
2023-04-27T03:41:09.262Z,1.60
2023-04-27T03:43:36.357Z,1.63
2023-04-27T03:46:22.001Z,1.37
2023-04-27T03:48:49.329Z,1.40
2023-04-27T03:51:16.847Z,1.30
2023-04-27T03:53:45.612Z,1.30
2023-04-27T03:56:12.381Z,1.47
2023-04-27T03:58:39.368Z,1.63
2023-04-27T04:01:26.388Z,1.50
2023-04-27T04:03:54.048Z,1.67
2023-04-27T04:06:21.114Z,1.50
2023-04-27T04:08:47.998Z,1.33
2023-04-27T04:11:14.852Z,1.40
2023-04-27T04:13:42.231Z,1.63
2023-04-27T04:16:09.828Z,1.50
2023-04-27T04:18:37.066Z,1.60
2023-04-27T04:21:05.234Z,1.53
2023-04-27T04:23:34.022Z,1.67
2023-04-27T04:26:02.222Z,1.53
2023-04-27T04:28:33.467Z,1.50
2023-04-27T04:31:03.481Z,1.40
2023-04-27T04:33:31.249Z,1.67
2023-04-27T04:35:58.796Z,1.43
2023-04-27T04:38:25.591Z,1.63
2023-04-27T04:41:10.934Z,1.40
2023-04-27T04:46:22.414Z,1.10
2023-04-27T04:48:52.695Z,1.03
2023-04-27T04:51:21.018Z,1.70
2023-04-27T04:53:47.869Z,1.13
2023-04-27T04:56:17.117Z,1.30
2023-04-27T04:58:43.955Z,1.40
2023-04-27T05:01:11.012Z,0.93
2023-04-27T05:03:37.987Z,1.10
2023-04-27T05:06:05.327Z,1.43
2023-04-27T05:08:32.055Z,1.70
2023-04-27T05:10:59.004Z,1.83
2023-04-27T05:13:25.908Z,1.00
2023-04-27T05:16:11.637Z,1.33
2023-04-27T05:18:38.530Z,1.47
2023-04-27T05:21:05.539Z,1.50
2023-04-27T05:23:32.329Z,2.40
2023-04-27T05:25:59.170Z,1.73
2023-04-27T05:28:26.283Z,1.60
2023-04-27T05:30:53.024Z,2.00
2023-04-27T05:33:20.731Z,1.80
2023-04-27T05:35:47.538Z,1.67
2023-04-27T05:38:17.479Z,1.90
2023-04-27T05:40:44.317Z,1.97
2023-04-27T05:43:11.111Z,1.00
2023-04-27T05:45:59.648Z,1.30
2023-04-27T05:48:45.252Z,1.50
2023-04-27T05:51:12.089Z,1.83
2023-04-27T05:53:39.101Z,2.80
2023-04-27T05:56:08.965Z,1.17
2023-04-27T05:58:35.739Z,2.00
2023-04-27T06:01:03.861Z,1.90
2023-04-27T06:03:31.530Z,2.27
2023-04-27T06:06:00.433Z,1.60
2023-04-27T06:08:28.004Z,1.93
2023-04-27T06:10:54.830Z,1.97
2023-04-27T06:13:21.747Z,2.13
2023-04-27T06:15:48.749Z,1.80
2023-04-27T06:18:15.670Z,1.93
2023-04-27T06:21:02.048Z,1.90
2023-04-27T06:23:29.274Z,2.03
2023-04-27T06:25:56.270Z,2.17
2023-04-27T06:28:23.216Z,2.57
2023-04-27T06:30:50.042Z,2.27
2023-04-27T06:33:17.470Z,1.97
2023-04-27T06:35:47.434Z,2.00
2023-04-27T06:38:14.558Z,2.37
2023-04-27T06:40:41.653Z,1.60
2023-04-27T06:43:08.617Z,1.87
2023-04-27T06:45:36.192Z,2.03
2023-04-27T06:48:03.382Z,1.70
2023-04-27T06:50:30.938Z,1.87
2023-04-27T06:52:57.751Z,2.10
2023-04-27T06:55:45.591Z,2.20
2023-04-27T06:58:13.744Z,2.80
2023-04-27T07:00:40.766Z,2.13
2023-04-27T07:03:07.701Z,2.40
2023-04-27T07:05:34.623Z,2.60
2023-04-27T07:08:04.564Z,2.10
2023-04-27T07:10:32.918Z,2.37
2023-04-27T07:12:59.749Z,1.67
2023-04-27T07:15:26.807Z,2.30
2023-04-27T07:17:56.981Z,2.50
2023-04-27T07:20:24.110Z,2.17
2023-04-27T07:25:35.728Z,1.90
2023-04-27T07:28:02.514Z,1.70
2023-04-27T07:30:31.005Z,2.00
2023-04-27T07:32:58.119Z,2.13
2023-04-27T07:35:24.957Z,2.03
2023-04-27T07:37:52.194Z,2.10
2023-04-27T07:40:19.071Z,2.17
2023-04-27T07:42:48.745Z,2.70
2023-04-27T07:45:17.534Z,2.27
2023-04-27T07:47:44.353Z,2.27
2023-04-27T07:50:11.329Z,1.67
2023-04-27T07:52:38.105Z,1.83
2023-04-27T07:55:05.217Z,2.33
2023-04-27T07:57:32.024Z,2.00
2023-04-27T07:59:58.783Z,1.77
2023-04-27T08:02:30.606Z,1.67
2023-04-27T08:04:57.901Z,2.33
2023-04-27T08:07:25.102Z,2.23
2023-04-27T08:09:52.724Z,2.03
2023-04-27T08:12:19.750Z,2.17
2023-04-27T08:14:47.292Z,2.20
2023-04-27T08:17:14.162Z,2.00
2023-04-27T08:19:41.539Z,2.33
2023-04-27T08:22:08.617Z,2.33
2023-04-27T08:24:36.388Z,2.13
2023-04-27T08:27:06.094Z,2.23
2023-04-27T08:29:33.327Z,1.90
2023-04-27T08:32:02.326Z,2.30
2023-04-27T08:34:29.559Z,2.07
2023-04-27T08:36:57.143Z,2.40
2023-04-27T08:39:24.788Z,1.97
2023-04-27T08:41:51.752Z,1.67
2023-04-27T08:44:18.866Z,2.30
2023-04-27T08:46:45.900Z,2.30
2023-04-27T08:49:15.143Z,3.13
2023-04-27T08:51:43.838Z,2.00
2023-04-27T08:54:10.773Z,2.40
2023-04-27T08:56:37.527Z,2.63
2023-04-27T08:59:04.636Z,1.97
2023-04-27T09:01:32.309Z,3.20
2023-04-27T09:04:02.083Z,2.70
2023-04-27T09:06:34.266Z,3.03
2023-04-27T09:09:02.869Z,3.00
2023-04-27T09:11:49.831Z,2.50
2023-04-27T09:14:21.836Z,2.50
2023-04-27T09:16:59.945Z,3.70
2023-04-27T09:19:28.787Z,3.07
2023-04-27T09:22:11.008Z,2.97
2023-04-27T09:24:38.044Z,2.23
2023-04-27T09:27:07.164Z,3.03
2023-04-27T09:32:22.414Z,2.97
2023-04-27T09:35:07.847Z,2.90
2023-04-27T09:37:34.830Z,3.73
2023-04-27T09:40:03.203Z,2.73
2023-04-27T09:42:30.221Z,2.90
2023-04-27T09:44:58.298Z,3.00
2023-04-27T09:47:28.567Z,2.53
2023-04-27T09:49:56.368Z,3.35
2023-04-27T09:52:23.244Z,2.90
2023-04-27T09:54:50.135Z,2.58
2023-04-27T09:57:27.557Z,2.83
2023-04-27T10:00:11.960Z,3.00
2023-04-27T10:02:53.605Z,2.93
2023-04-27T10:06:04.811Z,2.90
2023-04-27T10:08:50.886Z,2.80
2023-04-27T10:11:21.576Z,3.10
2023-04-27T10:13:55.360Z,2.70
2023-04-27T10:16:22.749Z,3.15
2023-04-27T10:18:54.867Z,2.83
2023-04-27T10:21:22.593Z,3.10
2023-04-27T10:23:52.000Z,3.08
2023-04-27T10:26:27.690Z,2.77
2023-04-27T10:29:08.517Z,3.25
2023-04-27T10:31:35.865Z,2.70
2023-04-27T10:34:10.719Z,2.60
2023-04-27T10:36:39.315Z,2.65
2023-04-27T10:39:25.602Z,3.40
2023-04-27T10:41:59.942Z,3.10
2023-04-27T10:44:31.515Z,3.17
2023-04-27T10:47:00.737Z,3.63
2023-04-27T10:49:29.384Z,2.90
2023-04-27T10:51:59.095Z,3.43
2023-04-27T10:54:29.677Z,2.85
2023-04-27T10:57:06.967Z,3.72
2023-04-27T10:59:35.994Z,3.40
2023-04-27T11:05:25.350Z,3.43
2023-04-27T11:07:52.613Z,2.88
2023-04-27T11:10:19.701Z,3.70
2023-04-27T11:12:46.946Z,3.05
2023-04-27T11:15:14.311Z,2.53
2023-04-27T11:17:41.820Z,3.33
2023-04-27T11:20:27.432Z,2.60
2023-04-27T11:22:54.262Z,2.60
2023-04-27T11:25:30.135Z,3.92
2023-04-27T11:27:56.967Z,3.28
2023-04-27T11:30:24.900Z,2.43
2023-04-27T11:32:51.855Z,3.15
2023-04-27T11:35:37.586Z,3.63
2023-04-27T11:38:23.056Z,3.92
2023-04-27T11:41:07.808Z,2.95
2023-04-27T11:43:35.327Z,2.67
2023-04-27T11:46:07.001Z,2.50
2023-04-27T11:48:37.578Z,2.40
2023-04-27T11:51:05.792Z,2.65
2023-04-27T11:53:38.110Z,3.30
2023-04-27T11:56:07.845Z,3.17
2023-04-27T11:58:36.323Z,2.60
2023-04-27T12:01:07.599Z,3.50
2023-04-27T12:03:35.538Z,3.45
2023-04-27T12:08:32.464Z,3.70
2023-04-27T12:10:59.332Z,2.85
2023-04-27T12:13:26.120Z,3.03
2023-04-27T12:15:53.016Z,2.63
2023-04-27T12:18:19.991Z,2.55
2023-04-27T12:20:47.128Z,3.55
2023-04-27T12:23:14.014Z,2.38
2023-04-27T12:28:25.462Z,3.00
2023-04-27T12:30:52.239Z,2.75
2023-04-27T12:33:19.285Z,3.03
2023-04-27T12:35:46.147Z,1.95
2023-04-27T12:38:13.182Z,2.92
2023-04-27T12:40:39.988Z,2.90
2023-04-27T12:43:08.382Z,3.07
2023-04-27T12:45:35.266Z,3.37
2023-04-27T12:48:04.194Z,3.50
2023-04-27T12:50:50.844Z,3.13
2023-04-27T12:53:17.610Z,3.10
2023-04-27T12:55:44.592Z,2.80
2023-04-27T12:58:11.339Z,3.87
2023-04-27T13:00:38.636Z,4.90
2023-04-27T13:03:06.877Z,3.65
2023-04-27T13:05:33.752Z,3.05
2023-04-27T13:08:00.610Z,2.63
2023-04-27T13:10:28.340Z,3.45
2023-04-27T13:12:55.292Z,4.20
2023-04-27T13:15:22.108Z,4.30
2023-04-27T13:17:48.907Z,3.90
2023-04-27T13:20:15.690Z,5.17
2023-04-27T13:22:42.604Z,3.95
2023-04-27T13:25:09.695Z,3.22
2023-04-27T13:27:36.749Z,3.10
2023-04-27T13:30:05.300Z,4.00
2023-04-27T13:32:32.331Z,3.00
2023-04-27T13:34:59.659Z,4.57
2023-04-27T13:37:27.177Z,2.93
2023-04-27T13:39:54.106Z,3.30
2023-04-27T13:42:21.570Z,4.30
2023-04-27T13:44:48.366Z,3.90
2023-04-27T13:47:15.180Z,4.33
2023-04-27T13:50:00.899Z,3.33
2023-04-27T13:52:27.713Z,3.60
2023-04-27T13:54:54.416Z,4.03
2023-04-27T13:57:21.374Z,3.97
2023-04-27T13:59:48.107Z,3.70
2023-04-27T14:02:15.078Z,3.57
2023-04-27T14:04:41.967Z,3.57
2023-04-27T14:07:08.798Z,4.60
2023-04-27T14:09:35.510Z,4.93
2023-04-27T14:12:02.853Z,4.63
2023-04-27T14:14:29.690Z,4.97
2023-04-27T14:16:57.298Z,4.25
2023-04-27T14:19:24.114Z,3.67
2023-04-27T14:21:57.239Z,4.00
2023-04-27T14:24:24.038Z,3.88
2023-04-27T14:26:51.275Z,5.25
2023-04-27T14:29:19.505Z,4.22
2023-04-27T14:31:47.092Z,4.55
2023-04-27T14:34:18.492Z,4.17
2023-04-27T14:37:05.567Z,4.70
2023-04-27T14:39:32.528Z,4.55
2023-04-27T14:41:59.339Z,4.47
2023-04-27T14:47:11.059Z,5.50
2023-04-27T14:49:38.207Z,4.63
2023-04-27T14:52:06.675Z,5.35
2023-04-27T14:54:33.816Z,5.15
2023-04-27T14:57:19.374Z,5.13
2023-04-27T14:59:46.361Z,5.60
2023-04-27T15:02:13.215Z,5.60
2023-04-27T15:04:41.548Z,6.53
2023-04-27T15:07:09.781Z,5.43
2023-04-27T15:09:36.590Z,6.00
2023-04-27T15:12:03.555Z,6.18
2023-04-27T15:14:30.677Z,5.07
2023-04-27T15:16:57.441Z,7.45
2023-04-27T15:19:24.254Z,6.30
2023-04-27T15:21:51.150Z,5.25
2023-04-27T15:24:17.886Z,5.47
2023-04-27T15:29:50.506Z,7.80
2023-04-27T15:32:17.358Z,6.32
2023-04-27T15:34:45.450Z,6.77
2023-04-27T15:37:12.620Z,5.75
2023-04-27T15:39:39.549Z,7.93
2023-04-27T15:44:51.245Z,7.63
2023-04-27T15:47:18.081Z,9.20
2023-04-27T15:49:56.255Z,7.80
2023-04-27T15:52:24.662Z,6.47
2023-04-27T15:54:51.441Z,9.33
2023-04-27T15:57:21.249Z,10.45
2023-04-27T15:59:48.129Z,10.48
2023-04-27T16:02:15.032Z,7.90
2023-04-27T16:04:41.803Z,10.30
2023-04-27T16:07:08.738Z,10.43
2023-04-27T16:09:35.608Z,12.20
2023-04-27T16:12:04.013Z,9.95
2023-04-27T16:14:31.116Z,11.48
2023-04-27T16:17:01.922Z,10.65
2023-04-27T16:19:30.173Z,12.00
2023-04-27T16:21:56.974Z,10.27
2023-04-27T16:24:25.316Z,11.27
2023-04-27T16:27:10.615Z,10.65
2023-04-27T16:29:37.568Z,13.45
2023-04-27T16:32:05.899Z,12.57
2023-04-27T16:34:32.915Z,11.40
2023-04-27T16:36:59.688Z,9.35
2023-04-27T16:39:26.504Z,13.07
2023-04-27T16:41:53.606Z,12.90
2023-04-27T16:47:04.679Z,12.15
2023-04-27T16:49:31.446Z,12.55
2023-04-27T16:51:58.365Z,13.80
2023-04-27T16:54:25.191Z,16.15
2023-04-27T16:56:53.207Z,17.60
2023-04-27T16:59:21.546Z,14.55
2023-04-27T17:01:48.465Z,13.90
2023-04-27T17:04:15.608Z,15.63
2023-04-27T17:06:44.857Z,14.85
2023-04-27T17:09:11.830Z,14.57
2023-04-27T17:11:39.014Z,14.18
2023-04-27T17:14:05.929Z,14.00
2023-04-27T17:16:32.683Z,13.20
2023-04-27T17:18:59.540Z,14.15
2023-04-27T17:21:27.530Z,10.80
2023-04-27T17:23:54.472Z,13.32
2023-04-27T17:26:21.723Z,12.73
2023-04-27T17:28:49.554Z,13.40
2023-04-27T17:31:19.354Z,15.80
2023-04-27T17:34:04.944Z,13.43
2023-04-27T17:36:31.777Z,13.23
2023-04-27T17:38:58.532Z,12.17
2023-04-27T17:41:25.269Z,13.00
2023-04-27T17:43:52.015Z,12.15
2023-04-27T17:46:18.924Z,11.43
2023-04-27T17:48:45.701Z,12.15
2023-04-27T17:51:12.498Z,12.95
2023-04-27T17:53:39.229Z,10.00
2023-04-27T17:56:06.264Z,9.55
2023-04-27T17:58:32.980Z,10.80
2023-04-27T18:01:00.031Z,10.00
2023-04-27T18:03:45.370Z,10.77
2023-04-27T18:06:32.129Z,8.40
2023-04-27T18:08:59.136Z,9.25
2023-04-27T18:11:26.388Z,10.45
2023-04-27T18:13:54.747Z,10.75
2023-04-27T18:16:21.709Z,9.83
2023-04-27T18:18:48.632Z,9.73
2023-04-27T18:21:15.475Z,8.20
2023-04-27T18:24:01.010Z,6.93
2023-04-27T18:26:27.798Z,8.95
2023-04-27T18:28:54.522Z,9.63
2023-04-27T18:31:21.427Z,8.77
2023-04-27T18:33:48.259Z,9.57
2023-04-27T18:36:15.100Z,8.80
2023-04-27T18:38:41.852Z,8.47
2023-04-27T18:41:08.747Z,8.52
2023-04-27T18:43:38.463Z,9.10
2023-04-27T18:46:24.984Z,9.97
2023-04-27T18:48:51.884Z,7.53
2023-04-27T18:51:18.617Z,7.07
2023-04-27T18:53:45.396Z,9.80
2023-04-27T18:56:12.210Z,8.70
2023-04-27T18:58:58.065Z,8.47
2023-04-27T19:01:26.096Z,9.07
2023-04-27T19:03:53.707Z,7.18
2023-04-27T19:06:21.420Z,6.73
2023-04-27T19:08:48.407Z,8.90
2023-04-27T19:11:15.609Z,8.77
2023-04-27T19:13:43.747Z,9.97
2023-04-27T19:16:11.084Z,7.87
2023-04-27T19:18:38.589Z,8.77
2023-04-27T19:21:05.556Z,10.23
2023-04-27T19:23:32.355Z,10.17
2023-04-27T19:26:09.509Z,6.87
2023-04-27T19:28:39.576Z,10.02
2023-04-27T19:31:07.138Z,8.37
2023-04-27T19:33:34.097Z,8.57
2023-04-27T19:36:00.974Z,9.90
2023-04-27T19:38:27.826Z,9.30
2023-04-27T19:40:54.561Z,9.03
2023-04-27T19:43:41.327Z,7.87
2023-04-27T19:46:08.338Z,7.63
2023-04-27T19:48:35.221Z,9.03
2023-04-27T19:51:02.122Z,9.13
2023-04-27T19:53:28.934Z,8.93
2023-04-27T19:55:55.781Z,8.63
2023-04-27T19:58:22.609Z,8.30
2023-04-27T20:00:49.526Z,10.20
2023-04-27T20:03:16.446Z,7.53
2023-04-27T20:05:43.710Z,9.20
2023-04-27T20:08:11.079Z,9.13
2023-04-27T20:10:37.928Z,9.38
2023-04-27T20:13:04.984Z,10.17
2023-04-27T20:15:32.424Z,9.07
2023-04-27T20:17:59.456Z,9.10
2023-04-27T20:20:26.321Z,8.20
2023-04-27T20:22:53.193Z,10.73
2023-04-27T20:25:20.972Z,9.00
2023-04-27T20:27:47.809Z,10.33
2023-04-27T20:30:14.724Z,7.90
2023-04-27T20:32:41.569Z,8.40
2023-04-27T20:35:27.955Z,9.33
2023-04-27T20:37:54.792Z,8.17
2023-04-27T20:40:21.871Z,10.10
2023-04-27T20:42:49.520Z,8.13
2023-04-27T20:45:17.576Z,6.43
2023-04-27T20:48:03.319Z,8.23
2023-04-27T20:50:30.917Z,8.37
2023-04-27T20:52:57.761Z,9.00
2023-04-27T20:55:24.548Z,8.60
2023-04-27T20:57:51.353Z,7.78
2023-04-27T21:00:36.827Z,10.63
2023-04-27T21:03:03.844Z,9.83
2023-04-27T21:05:31.660Z,9.65
2023-04-27T21:07:58.693Z,9.00
2023-04-27T21:10:25.520Z,8.60
2023-04-27T21:12:52.509Z,8.63
2023-04-27T21:15:19.450Z,9.68
2023-04-27T21:17:46.281Z,11.83
2023-04-27T21:20:13.136Z,9.50
2023-04-27T21:22:39.980Z,11.60
2023-04-27T21:25:07.156Z,10.20
2023-04-27T21:27:33.974Z,11.07
2023-04-27T21:30:00.826Z,10.13
2023-04-27T21:32:28.278Z,11.00
2023-04-27T21:34:55.054Z,9.52
2023-04-27T21:37:22.037Z,10.17
2023-04-27T21:39:48.865Z,13.10
2023-04-27T21:42:16.365Z,9.80
2023-04-27T21:44:43.214Z,10.43
2023-04-27T21:47:10.006Z,10.83
2023-04-27T21:49:36.871Z,12.20
2023-04-27T21:52:03.702Z,12.00
2023-04-27T21:54:49.013Z,11.80
2023-04-27T21:57:16.933Z,11.63
2023-04-27T21:59:44.929Z,11.65
2023-04-27T22:02:11.808Z,10.90
2023-04-27T22:04:39.644Z,11.02
2023-04-27T22:07:08.118Z,12.80
2023-04-27T22:09:38.214Z,11.50
2023-04-27T22:12:05.223Z,11.37
2023-04-27T22:14:32.074Z,13.13
2023-04-27T22:17:00.886Z,13.25
2023-04-27T22:19:28.690Z,12.05
2023-04-27T22:21:55.826Z,11.17
2023-04-27T22:24:23.195Z,11.87
2023-04-27T22:26:50.080Z,11.68
2023-04-27T22:29:16.960Z,12.02
2023-04-27T22:31:44.734Z,11.05
2023-04-27T22:34:13.077Z,12.20
2023-04-27T22:36:40.551Z,12.13
2023-04-27T22:39:07.486Z,12.30
2023-04-27T22:41:34.273Z,12.67
2023-04-27T22:44:01.287Z,11.00
2023-04-27T22:46:28.262Z,11.57
2023-04-27T22:48:55.143Z,10.23
2023-04-27T22:51:23.689Z,9.77
2023-04-27T22:53:50.803Z,10.25
2023-04-27T22:56:17.630Z,11.47
2023-04-27T22:58:44.554Z,10.15
2023-04-27T23:01:11.805Z,9.80
2023-04-27T23:03:38.909Z,10.57
2023-04-27T23:06:07.236Z,11.10
2023-04-27T23:08:34.094Z,12.70
2023-04-27T23:11:02.850Z,11.50
2023-04-27T23:13:29.695Z,11.73
2023-04-27T23:15:56.859Z,11.73
2023-04-27T23:18:23.798Z,10.18
2023-04-27T23:20:54.866Z,10.38
2023-04-27T23:23:21.909Z,12.53
2023-04-27T23:25:48.741Z,11.73
2023-04-27T23:28:15.631Z,10.73
2023-04-27T23:31:01.458Z,11.07
2023-04-27T23:33:28.360Z,10.20
2023-04-27T23:35:56.186Z,11.77
2023-04-27T23:38:23.140Z,11.70
2023-04-27T23:40:49.941Z,11.93
2023-04-27T23:43:19.525Z,12.43
2023-04-27T23:45:50.883Z,8.83
2023-04-27T23:48:17.934Z,9.18
2023-04-27T23:50:44.856Z,11.50
2023-04-27T23:53:11.966Z,11.67
2023-04-27T23:55:38.911Z,10.60
2023-04-27T23:58:05.990Z,10.97
